KGVL/GVL METAR and TAF weather

Enter ICAO airport designator
Station Type Date Time Source
KGVL METAR 2020/09/24 10:53 UTC NOAA

KGVL 241053Z AUTO 10004KT 10SM BKN100 17/14 A3004 RMK AO2 SLP162 T01670139


Station Type Date Time Source
KGVL Decoded METAR 2020/09/24 10:53 UTC NOAA

GILMER MEMORIAL AIRPORT, GA, United States (KGVL) 34-16N 83-50W 386M
Sep 24, 2020 - 06:53 AM EDT / 2020.09.24 1053 UTC
Wind: from the E (100 degrees) at 5 MPH (4 KT):0
Visibility: 10 mile(s):0
Sky conditions: mostly cloudy
Temperature: 62.1 F (16.7 C)
Dew Point: 57.0 F (13.9 C)
Relative Humidity: 83%
Pressure (altimeter): 30.04 in. Hg (1017 hPa)
ob: KGVL 241053Z AUTO 10004KT 10SM BKN100 17/14 A3004 RMK AO2 SLP162 T01670139
cycle: 11

Station Type Date Time Source
KGVL TAF UTC NOAA

Error!

Example: see airport list